Pagrindinis puslapis
METAR-TAF:

METAR-TAF

Oro uostai :

La Argelia

Locha, Ekvadoras

platuma: 03-59-45S, ilguma: 079-22-19W, Aukštis: 1236 m

Dabartinis oras

Ataskaita buvo paskelbta 7 valandos ir 55 minutes, ne 19:00 UTC
Vėjas 11 kt iš Rytų/Šiaurės Rytų
Temperatūra 30°C
Drėgmė 35%
Slėgis 1016 hPa
Matomumas 10 km arba daugiau
Išsisklaidę debesys ne aukštis 4000 ft
Apsiniaukę ne aukštis 20000 ft

METAR: SECA 161900Z 07011KT 9999 SCT040 OVC200 30/13 Q1016

Laikas: 21:55 (02:55 UTC)


TAF: trūkstamas

Orai ataskaitas ir orų prognozės (METAR, TAF).

turimą stotys yra geltonos ir raudonos taškus žemėlapyje.

Perkelti pele per norėdami pamatyti stoties vardą.

Tada spustelėkite, norėdami matyti oro stebėjimo ir prognozės.

Norėdami pakeisti žemėlapį: spustelėkite ant žalios mygtukų su juodo kryžiaus žemyn,; žalią mygtuką su brūkšneliu, jei norite nutolinti; arba žalių rodyklių gretimoms žemėlapius.


METAR-TAF: